sensor_id;sensor_type;location;lat;lon;timestamp;temperature;humidity
37268;DHT22;23154;52.542;13.362;2022-12-07T00:01:13;2.30;99.90
37268;DHT22;23154;52.542;13.362;2022-12-07T00:03:39;2.40;99.90
37268;DHT22;23154;52.542;13.362;2022-12-07T00:06:05;2.30;99.90
37268;DHT22;23154;52.542;13.362;2022-12-07T00:08:31;2.30;99.90
37268;DHT22;23154;52.542;13.362;2022-12-07T00:11:03;2.30;99.90
37268;DHT22;23154;52.542;13.362;2022-12-07T00:13:29;2.30;99.90
37268;DHT22;23154;52.542;13.362;2022-12-07T00:15:55;2.20;99.90
37268;DHT22;23154;52.542;13.362;2022-12-07T00:18:20;2.20;99.90
37268;DHT22;23154;52.542;13.362;2022-12-07T00:20:46;2.20;99.90
37268;DHT22;23154;52.542;13.362;2022-12-07T00:23:11;2.10;99.90
37268;DHT22;23154;52.542;13.362;2022-12-07T00:25:37;2.10;99.90
37268;DHT22;23154;52.542;13.362;2022-12-07T00:28:02;2.10;99.90
37268;DHT22;23154;52.542;13.362;2022-12-07T00:30:28;2.00;99.90
37268;DHT22;23154;52.542;13.362;2022-12-07T00:32:54;2.00;99.90
37268;DHT22;23154;52.542;13.362;2022-12-07T00:35:19;2.00;99.90
37268;DHT22;23154;52.542;13.362;2022-12-07T00:37:45;2.00;99.90
37268;DHT22;23154;52.542;13.362;2022-12-07T00:40:10;2.00;99.90
37268;DHT22;23154;52.542;13.362;2022-12-07T00:42:36;2.00;99.90
37268;DHT22;23154;52.542;13.362;2022-12-07T00:45:02;2.00;99.90
37268;DHT22;23154;52.542;13.362;2022-12-07T00:47:27;2.00;99.90
37268;DHT22;23154;52.542;13.362;2022-12-07T00:49:53;1.90;99.90
37268;DHT22;23154;52.542;13.362;2022-12-07T00:52:18;1.80;99.90
37268;DHT22;23154;52.542;13.362;2022-12-07T00:54:44;1.80;99.90
37268;DHT22;23154;52.542;13.362;2022-12-07T00:57:09;1.70;99.90
37268;DHT22;23154;52.542;13.362;2022-12-07T00:59:35;1.50;99.90
37268;DHT22;23154;52.542;13.362;2022-12-07T01:02:00;1.50;99.90
37268;DHT22;23154;52.542;13.362;2022-12-07T01:04:26;1.50;99.90
37268;DHT22;23154;52.542;13.362;2022-12-07T01:06:51;1.40;99.90
37268;DHT22;23154;52.542;13.362;2022-12-07T01:09:17;1.40;99.90
37268;DHT22;23154;52.542;13.362;2022-12-07T01:11:42;1.50;99.90
37268;DHT22;23154;52.542;13.362;2022-12-07T01:14:08;1.50;99.90
37268;DHT22;23154;52.542;13.362;2022-12-07T01:16:33;1.50;99.90
37268;DHT22;23154;52.542;13.362;2022-12-07T01:18:59;1.60;99.90
37268;DHT22;23154;52.542;13.362;2022-12-07T01:21:26;1.60;99.90
37268;DHT22;23154;52.542;13.362;2022-12-07T01:23:52;1.60;99.90
37268;DHT22;23154;52.542;13.362;2022-12-07T01:26:18;1.60;99.90
37268;DHT22;23154;52.542;13.362;2022-12-07T01:28:45;1.60;99.90
37268;DHT22;23154;52.542;13.362;2022-12-07T01:31:12;1.60;99.90
37268;DHT22;23154;52.542;13.362;2022-12-07T01:33:40;1.70;99.90
37268;DHT22;23154;52.542;13.362;2022-12-07T01:36:13;1.70;99.90
37268;DHT22;23154;52.542;13.362;2022-12-07T01:38:39;1.60;99.90
37268;DHT22;23154;52.542;13.362;2022-12-07T01:41:05;1.50;99.90
37268;DHT22;23154;52.542;13.362;2022-12-07T01:43:31;1.50;99.90
37268;DHT22;23154;52.542;13.362;2022-12-07T01:45:56;1.60;99.90
37268;DHT22;23154;52.542;13.362;2022-12-07T01:48:24;1.60;99.90
37268;DHT22;23154;52.542;13.362;2022-12-07T01:50:50;1.60;99.90
37268;DHT22;23154;52.542;13.362;2022-12-07T01:53:17;1.60;99.90
37268;DHT22;23154;52.542;13.362;2022-12-07T01:55:44;1.60;99.90
37268;DHT22;23154;52.542;13.362;2022-12-07T01:58:11;1.60;99.90
37268;DHT22;23154;52.542;13.362;2022-12-07T02:00:37;1.60;99.90
37268;DHT22;23154;52.542;13.362;2022-12-07T02:05:41;1.60;99.90
37268;DHT22;23154;52.542;13.362;2022-12-07T02:08:07;1.60;99.90
37268;DHT22;23154;52.542;13.362;2022-12-07T02:10:32;1.50;99.90
37268;DHT22;23154;52.542;13.362;2022-12-07T02:13:00;1.50;99.90
37268;DHT22;23154;52.542;13.362;2022-12-07T02:15:39;1.50;99.90
37268;DHT22;23154;52.542;13.362;2022-12-07T02:18:08;1.50;99.90
37268;DHT22;23154;52.542;13.362;2022-12-07T02:28:32;1.30;99.90
37268;DHT22;23154;52.542;13.362;2022-12-07T02:31:02;1.20;99.90
37268;DHT22;23154;52.542;13.362;2022-12-07T02:33:53;1.20;99.90
37268;DHT22;23154;52.542;13.362;2022-12-07T02:38:58;1.20;99.90
37268;DHT22;23154;52.542;13.362;2022-12-07T02:41:29;1.20;99.90
37268;DHT22;23154;52.542;13.362;2022-12-07T02:44:00;1.10;99.90
37268;DHT22;23154;52.542;13.362;2022-12-07T02:46:30;1.10;99.90
37268;DHT22;23154;52.542;13.362;2022-12-07T02:48:57;1.20;99.90
37268;DHT22;23154;52.542;13.362;2022-12-07T02:51:25;1.20;99.90
37268;DHT22;23154;52.542;13.362;2022-12-07T02:53:50;1.20;99.90
37268;DHT22;23154;52.542;13.362;2022-12-07T03:01:32;1.30;99.90
37268;DHT22;23154;52.542;13.362;2022-12-07T03:04:02;1.30;99.90
37268;DHT22;23154;52.542;13.362;2022-12-07T03:06:31;1.30;99.90
37268;DHT22;23154;52.542;13.362;2022-12-07T03:11:30;1.30;99.90
37268;DHT22;23154;52.542;13.362;2022-12-07T03:14:20;1.30;99.90
37268;DHT22;23154;52.542;13.362;2022-12-07T03:16:49;1.30;99.90
37268;DHT22;23154;52.542;13.362;2022-12-07T03:19:18;1.30;99.90
37268;DHT22;23154;52.542;13.362;2022-12-07T03:21:58;1.40;99.90
37268;DHT22;23154;52.542;13.362;2022-12-07T03:25:00;1.40;99.90
37268;DHT22;23154;52.542;13.362;2022-12-07T03:27:19;1.50;99.90
37268;DHT22;23154;52.542;13.362;2022-12-07T03:29:49;1.50;99.90
37268;DHT22;23154;52.542;13.362;2022-12-07T03:32:23;1.50;99.90
37268;DHT22;23154;52.542;13.362;2022-12-07T03:37:22;1.60;99.90
37268;DHT22;23154;52.542;13.362;2022-12-07T03:42:16;1.60;99.90
37268;DHT22;23154;52.542;13.362;2022-12-07T03:44:42;1.60;99.90
37268;DHT22;23154;52.542;13.362;2022-12-07T03:47:21;1.70;99.90
37268;DHT22;23154;52.542;13.362;2022-12-07T03:49:51;1.70;99.90
37268;DHT22;23154;52.542;13.362;2022-12-07T03:52:32;1.70;99.90
37268;DHT22;23154;52.542;13.362;2022-12-07T03:57:31;1.70;99.90
37268;DHT22;23154;52.542;13.362;2022-12-07T03:59:58;1.70;99.90
37268;DHT22;23154;52.542;13.362;2022-12-07T04:02:26;1.70;99.90
37268;DHT22;23154;52.542;13.362;2022-12-07T04:04:52;1.70;99.90
37268;DHT22;23154;52.542;13.362;2022-12-07T04:07:17;1.60;99.90
37268;DHT22;23154;52.542;13.362;2022-12-07T04:09:43;1.60;99.90
37268;DHT22;23154;52.542;13.362;2022-12-07T04:12:08;1.70;99.90
37268;DHT22;23154;52.542;13.362;2022-12-07T04:14:34;1.70;99.90
37268;DHT22;23154;52.542;13.362;2022-12-07T04:16:59;1.70;99.90
37268;DHT22;23154;52.542;13.362;2022-12-07T04:19:26;1.70;99.90
37268;DHT22;23154;52.542;13.362;2022-12-07T04:21:52;1.70;99.90
37268;DHT22;23154;52.542;13.362;2022-12-07T04:24:18;1.70;99.90
37268;DHT22;23154;52.542;13.362;2022-12-07T04:26:43;1.70;99.90
37268;DHT22;23154;52.542;13.362;2022-12-07T04:29:09;1.70;99.90
37268;DHT22;23154;52.542;13.362;2022-12-07T04:31:35;1.70;99.90
37268;DHT22;23154;52.542;13.362;2022-12-07T04:34:01;1.70;99.90
37268;DHT22;23154;52.542;13.362;2022-12-07T04:36:27;1.70;99.90
37268;DHT22;23154;52.542;13.362;2022-12-07T04:38:53;1.70;99.90
37268;DHT22;23154;52.542;13.362;2022-12-07T04:41:18;1.70;99.90
37268;DHT22;23154;52.542;13.362;2022-12-07T04:43:44;1.70;99.90
37268;DHT22;23154;52.542;13.362;2022-12-07T04:46:09;1.70;99.90
37268;DHT22;23154;52.542;13.362;2022-12-07T04:48:35;1.70;99.90
37268;DHT22;23154;52.542;13.362;2022-12-07T04:51:02;1.80;99.90
37268;DHT22;23154;52.542;13.362;2022-12-07T04:53:27;1.80;99.90
37268;DHT22;23154;52.542;13.362;2022-12-07T04:55:53;1.70;99.90
37268;DHT22;23154;52.542;13.362;2022-12-07T04:58:18;1.80;99.90
37268;DHT22;23154;52.542;13.362;2022-12-07T05:00:44;1.80;99.90
37268;DHT22;23154;52.542;13.362;2022-12-07T05:03:09;1.80;99.90
37268;DHT22;23154;52.542;13.362;2022-12-07T05:05:35;1.80;99.90
37268;DHT22;23154;52.542;13.362;2022-12-07T05:08:00;1.90;99.90
37268;DHT22;23154;52.542;13.362;2022-12-07T05:10:25;1.90;99.90
37268;DHT22;23154;52.542;13.362;2022-12-07T05:12:51;2.00;99.90
37268;DHT22;23154;52.542;13.362;2022-12-07T05:15:16;2.00;99.90
37268;DHT22;23154;52.542;13.362;2022-12-07T05:17:42;2.10;99.90
37268;DHT22;23154;52.542;13.362;2022-12-07T05:20:08;2.10;99.90
37268;DHT22;23154;52.542;13.362;2022-12-07T05:22:33;2.10;99.90
37268;DHT22;23154;52.542;13.362;2022-12-07T05:24:59;2.10;99.90
37268;DHT22;23154;52.542;13.362;2022-12-07T05:27:24;2.20;99.90
37268;DHT22;23154;52.542;13.362;2022-12-07T05:29:50;2.20;99.90
37268;DHT22;23154;52.542;13.362;2022-12-07T05:32:16;2.20;99.90
37268;DHT22;23154;52.542;13.362;2022-12-07T05:34:41;2.20;99.90
37268;DHT22;23154;52.542;13.362;2022-12-07T05:37:07;2.30;99.90
37268;DHT22;23154;52.542;13.362;2022-12-07T05:39:32;2.30;99.90
37268;DHT22;23154;52.542;13.362;2022-12-07T05:41:58;2.30;99.90
37268;DHT22;23154;52.542;13.362;2022-12-07T05:44:39;2.30;99.90
37268;DHT22;23154;52.542;13.362;2022-12-07T05:47:04;2.30;99.90
37268;DHT22;23154;52.542;13.362;2022-12-07T05:49:30;2.40;99.90
37268;DHT22;23154;52.542;13.362;2022-12-07T05:51:56;2.40;99.90
37268;DHT22;23154;52.542;13.362;2022-12-07T05:54:21;2.40;99.90
37268;DHT22;23154;52.542;13.362;2022-12-07T05:56:47;2.40;99.90
37268;DHT22;23154;52.542;13.362;2022-12-07T05:59:12;2.40;99.90
37268;DHT22;23154;52.542;13.362;2022-12-07T06:01:51;2.40;99.90
37268;DHT22;23154;52.542;13.362;2022-12-07T06:04:16;2.50;99.90
37268;DHT22;23154;52.542;13.362;2022-12-07T06:06:42;2.50;99.90
37268;DHT22;23154;52.542;13.362;2022-12-07T06:09:08;2.60;99.90
37268;DHT22;23154;52.542;13.362;2022-12-07T06:11:33;2.50;99.90
37268;DHT22;23154;52.542;13.362;2022-12-07T06:14:17;2.60;99.90
37268;DHT22;23154;52.542;13.362;2022-12-07T06:16:43;2.60;99.90
37268;DHT22;23154;52.542;13.362;2022-12-07T06:19:08;2.60;99.90
37268;DHT22;23154;52.542;13.362;2022-12-07T06:21:34;2.60;99.90
37268;DHT22;23154;52.542;13.362;2022-12-07T06:23:59;2.60;99.90
37268;DHT22;23154;52.542;13.362;2022-12-07T06:26:25;2.70;99.90
37268;DHT22;23154;52.542;13.362;2022-12-07T06:28:50;2.60;99.90
37268;DHT22;23154;52.542;13.362;2022-12-07T06:31:16;2.60;99.90
37268;DHT22;23154;52.542;13.362;2022-12-07T06:33:42;2.60;99.90
37268;DHT22;23154;52.542;13.362;2022-12-07T06:36:07;2.60;99.90
37268;DHT22;23154;52.542;13.362;2022-12-07T06:38:33;2.60;99.90
37268;DHT22;23154;52.542;13.362;2022-12-07T06:40:58;2.60;99.90
37268;DHT22;23154;52.542;13.362;2022-12-07T06:43:24;2.60;99.90
37268;DHT22;23154;52.542;13.362;2022-12-07T06:45:49;2.60;99.90
37268;DHT22;23154;52.542;13.362;2022-12-07T06:48:16;2.70;99.90
37268;DHT22;23154;52.542;13.362;2022-12-07T06:50:43;2.70;99.90
37268;DHT22;23154;52.542;13.362;2022-12-07T06:53:09;2.70;99.90
37268;DHT22;23154;52.542;13.362;2022-12-07T06:55:35;2.70;99.90
37268;DHT22;23154;52.542;13.362;2022-12-07T06:58:00;2.70;99.90
37268;DHT22;23154;52.542;13.362;2022-12-07T07:00:27;2.80;99.90
37268;DHT22;23154;52.542;13.362;2022-12-07T07:02:53;2.80;99.90
37268;DHT22;23154;52.542;13.362;2022-12-07T07:05:18;2.80;99.90
37268;DHT22;23154;52.542;13.362;2022-12-07T07:07:47;2.90;99.90
37268;DHT22;23154;52.542;13.362;2022-12-07T07:10:13;2.90;99.90
37268;DHT22;23154;52.542;13.362;2022-12-07T07:12:38;2.90;99.90
37268;DHT22;23154;52.542;13.362;2022-12-07T07:15:04;2.90;99.90
37268;DHT22;23154;52.542;13.362;2022-12-07T07:17:30;3.00;99.90
37268;DHT22;23154;52.542;13.362;2022-12-07T07:19:55;3.10;99.90
37268;DHT22;23154;52.542;13.362;2022-12-07T07:22:21;3.20;99.90
37268;DHT22;23154;52.542;13.362;2022-12-07T07:24:47;3.10;99.90
37268;DHT22;23154;52.542;13.362;2022-12-07T07:27:12;3.10;99.90
37268;DHT22;23154;52.542;13.362;2022-12-07T07:29:37;3.10;99.90
37268;DHT22;23154;52.542;13.362;2022-12-07T07:32:03;3.10;99.90
37268;DHT22;23154;52.542;13.362;2022-12-07T07:34:29;3.10;99.90
37268;DHT22;23154;52.542;13.362;2022-12-07T07:36:54;3.10;99.90
37268;DHT22;23154;52.542;13.362;2022-12-07T07:39:19;3.10;99.90
37268;DHT22;23154;52.542;13.362;2022-12-07T07:41:45;3.10;99.90
37268;DHT22;23154;52.542;13.362;2022-12-07T07:44:11;3.00;99.90
37268;DHT22;23154;52.542;13.362;2022-12-07T07:46:37;3.00;99.90
37268;DHT22;23154;52.542;13.362;2022-12-07T07:49:03;3.10;99.90
37268;DHT22;23154;52.542;13.362;2022-12-07T07:51:28;3.10;99.90
37268;DHT22;23154;52.542;13.362;2022-12-07T07:53:54;3.10;99.90
37268;DHT22;23154;52.542;13.362;2022-12-07T07:56:19;3.20;99.90
37268;DHT22;23154;52.542;13.362;2022-12-07T07:58:45;3.20;99.90
37268;DHT22;23154;52.542;13.362;2022-12-07T08:01:10;3.20;99.90
37268;DHT22;23154;52.542;13.362;2022-12-07T08:03:36;3.20;99.90
37268;DHT22;23154;52.542;13.362;2022-12-07T08:06:02;3.30;99.90
37268;DHT22;23154;52.542;13.362;2022-12-07T08:08:28;3.30;99.90
37268;DHT22;23154;52.542;13.362;2022-12-07T08:10:53;3.30;99.90
37268;DHT22;23154;52.542;13.362;2022-12-07T08:13:19;3.30;99.90
37268;DHT22;23154;52.542;13.362;2022-12-07T08:15:45;3.30;99.90
37268;DHT22;23154;52.542;13.362;2022-12-07T08:18:11;3.40;99.90
37268;DHT22;23154;52.542;13.362;2022-12-07T08:20:37;3.40;99.90
37268;DHT22;23154;52.542;13.362;2022-12-07T08:23:03;3.40;99.90
37268;DHT22;23154;52.542;13.362;2022-12-07T08:25:29;3.40;99.90
37268;DHT22;23154;52.542;13.362;2022-12-07T08:27:55;3.40;99.90
37268;DHT22;23154;52.542;13.362;2022-12-07T08:30:20;3.40;99.90
37268;DHT22;23154;52.542;13.362;2022-12-07T08:32:47;3.50;99.90
37268;DHT22;23154;52.542;13.362;2022-12-07T08:35:13;3.40;99.90
37268;DHT22;23154;52.542;13.362;2022-12-07T08:37:39;3.50;99.90
37268;DHT22;23154;52.542;13.362;2022-12-07T08:40:05;3.50;99.90
37268;DHT22;23154;52.542;13.362;2022-12-07T08:42:31;3.50;99.90
37268;DHT22;23154;52.542;13.362;2022-12-07T08:45:04;3.50;99.90
37268;DHT22;23154;52.542;13.362;2022-12-07T08:47:30;3.50;99.90
37268;DHT22;23154;52.542;13.362;2022-12-07T08:49:56;3.50;99.90
37268;DHT22;23154;52.542;13.362;2022-12-07T08:52:22;3.50;99.90
37268;DHT22;23154;52.542;13.362;2022-12-07T08:54:47;3.50;99.90
37268;DHT22;23154;52.542;13.362;2022-12-07T08:57:13;3.50;99.90
37268;DHT22;23154;52.542;13.362;2022-12-07T08:59:39;3.60;99.90
37268;DHT22;23154;52.542;13.362;2022-12-07T09:02:04;3.60;99.90
37268;DHT22;23154;52.542;13.362;2022-12-07T09:04:30;3.60;99.90
37268;DHT22;23154;52.542;13.362;2022-12-07T09:06:56;3.60;99.90
37268;DHT22;23154;52.542;13.362;2022-12-07T09:09:22;3.60;99.90
37268;DHT22;23154;52.542;13.362;2022-12-07T09:11:47;3.60;99.90
37268;DHT22;23154;52.542;13.362;2022-12-07T09:14:13;3.70;99.90
37268;DHT22;23154;52.542;13.362;2022-12-07T09:16:39;3.60;99.90
37268;DHT22;23154;52.542;13.362;2022-12-07T09:19:04;3.60;99.90
37268;DHT22;23154;52.542;13.362;2022-12-07T09:21:30;3.60;99.90
37268;DHT22;23154;52.542;13.362;2022-12-07T09:23:55;3.50;99.90
37268;DHT22;23154;52.542;13.362;2022-12-07T09:26:21;3.50;99.90
37268;DHT22;23154;52.542;13.362;2022-12-07T09:28:46;3.50;99.90
37268;DHT22;23154;52.542;13.362;2022-12-07T09:31:12;3.40;99.90
37268;DHT22;23154;52.542;13.362;2022-12-07T09:33:37;3.50;99.90
37268;DHT22;23154;52.542;13.362;2022-12-07T09:36:03;3.40;99.90
37268;DHT22;23154;52.542;13.362;2022-12-07T09:38:29;3.50;99.90
37268;DHT22;23154;52.542;13.362;2022-12-07T09:40:56;3.40;99.90
37268;DHT22;23154;52.542;13.362;2022-12-07T09:43:22;3.40;99.90
37268;DHT22;23154;52.542;13.362;2022-12-07T09:45:50;3.40;99.90
37268;DHT22;23154;52.542;13.362;2022-12-07T09:48:21;3.40;99.90
37268;DHT22;23154;52.542;13.362;2022-12-07T09:50:47;3.40;99.90
37268;DHT22;23154;52.542;13.362;2022-12-07T09:53:15;3.40;99.90
37268;DHT22;23154;52.542;13.362;2022-12-07T09:55:42;3.40;99.90
37268;DHT22;23154;52.542;13.362;2022-12-07T09:58:12;3.40;99.90
37268;DHT22;23154;52.542;13.362;2022-12-07T10:00:39;3.30;99.90
37268;DHT22;23154;52.542;13.362;2022-12-07T10:03:05;3.30;99.90
37268;DHT22;23154;52.542;13.362;2022-12-07T10:05:41;3.30;99.90
37268;DHT22;23154;52.542;13.362;2022-12-07T10:08:08;3.30;99.90
37268;DHT22;23154;52.542;13.362;2022-12-07T10:10:35;3.40;99.90
37268;DHT22;23154;52.542;13.362;2022-12-07T10:13:08;3.40;99.90
37268;DHT22;23154;52.542;13.362;2022-12-07T10:23:40;3.20;99.90
37268;DHT22;23154;52.542;13.362;2022-12-07T10:26:26;3.30;99.90
37268;DHT22;23154;52.542;13.362;2022-12-07T10:28:53;3.30;99.90
37268;DHT22;23154;52.542;13.362;2022-12-07T10:31:19;3.30;99.90
37268;DHT22;23154;52.542;13.362;2022-12-07T10:38:59;3.20;99.90
37268;DHT22;23154;52.542;13.362;2022-12-07T10:41:25;3.30;99.90
37268;DHT22;23154;52.542;13.362;2022-12-07T10:43:52;3.40;99.90
37268;DHT22;23154;52.542;13.362;2022-12-07T10:46:36;3.40;99.90
37268;DHT22;23154;52.542;13.362;2022-12-07T10:51:51;3.60;99.90
37268;DHT22;23154;52.542;13.362;2022-12-07T10:57:07;3.50;99.90
37268;DHT22;23154;52.542;13.362;2022-12-07T11:04:55;3.50;99.90
37268;DHT22;23154;52.542;13.362;2022-12-07T11:07:32;3.60;99.90
37268;DHT22;23154;52.542;13.362;2022-12-07T11:30:22;3.60;99.90
37268;DHT22;23154;52.542;13.362;2022-12-07T11:37:48;3.70;99.90
37268;DHT22;23154;52.542;13.362;2022-12-07T11:45:35;3.90;99.90
37268;DHT22;23154;52.542;13.362;2022-12-07T11:48:16;3.90;99.90
37268;DHT22;23154;52.542;13.362;2022-12-07T11:50:50;3.90;99.90
37268;DHT22;23154;52.542;13.362;2022-12-07T12:00:48;4.00;99.90
37268;DHT22;23154;52.542;13.362;2022-12-07T12:03:20;3.90;99.90
37268;DHT22;23154;52.542;13.362;2022-12-07T12:05:48;4.00;99.90
37268;DHT22;23154;52.542;13.362;2022-12-07T12:08:16;4.10;99.90
37268;DHT22;23154;52.542;13.362;2022-12-07T12:10:51;3.90;99.90
37268;DHT22;23154;52.542;13.362;2022-12-07T12:21:01;4.20;99.90
37268;DHT22;23154;52.542;13.362;2022-12-07T12:26:00;4.30;99.90
37268;DHT22;23154;52.542;13.362;2022-12-07T12:31:13;4.20;99.90
37268;DHT22;23154;52.542;13.362;2022-12-07T12:33:42;4.20;99.90
37268;DHT22;23154;52.542;13.362;2022-12-07T12:39:25;4.20;99.90
37268;DHT22;23154;52.542;13.362;2022-12-07T12:44:01;4.10;99.90
37268;DHT22;23154;52.542;13.362;2022-12-07T12:48:52;4.10;99.90
37268;DHT22;23154;52.542;13.362;2022-12-07T12:51:40;4.20;99.90
37268;DHT22;23154;52.542;13.362;2022-12-07T12:54:11;4.10;99.90
37268;DHT22;23154;52.542;13.362;2022-12-07T12:59:24;4.10;99.90
37268;DHT22;23154;52.542;13.362;2022-12-07T13:01:51;4.10;99.90
37268;DHT22;23154;52.542;13.362;2022-12-07T13:04:20;4.10;99.90
37268;DHT22;23154;52.542;13.362;2022-12-07T13:06:46;4.10;99.90
37268;DHT22;23154;52.542;13.362;2022-12-07T13:09:22;4.10;99.90
37268;DHT22;23154;52.542;13.362;2022-12-07T13:11:48;4.10;99.90
37268;DHT22;23154;52.542;13.362;2022-12-07T13:16:59;4.10;99.90
37268;DHT22;23154;52.542;13.362;2022-12-07T13:22:31;4.10;99.90
37268;DHT22;23154;52.542;13.362;2022-12-07T13:24:55;4.10;99.90
37268;DHT22;23154;52.542;13.362;2022-12-07T13:27:21;4.00;99.90
37268;DHT22;23154;52.542;13.362;2022-12-07T13:29:46;4.10;99.90
37268;DHT22;23154;52.542;13.362;2022-12-07T13:32:23;4.00;99.90
37268;DHT22;23154;52.542;13.362;2022-12-07T13:34:49;4.00;99.90
37268;DHT22;23154;52.542;13.362;2022-12-07T13:39:44;4.00;99.90
37268;DHT22;23154;52.542;13.362;2022-12-07T13:42:27;4.00;99.90
37268;DHT22;23154;52.542;13.362;2022-12-07T13:44:53;4.00;99.90
37268;DHT22;23154;52.542;13.362;2022-12-07T13:47:32;4.00;99.90
37268;DHT22;23154;52.542;13.362;2022-12-07T13:50:00;4.00;99.90
37268;DHT22;23154;52.542;13.362;2022-12-07T13:52:27;4.00;99.90
37268;DHT22;23154;52.542;13.362;2022-12-07T13:55:00;4.10;99.90
37268;DHT22;23154;52.542;13.362;2022-12-07T13:57:27;4.10;99.90
37268;DHT22;23154;52.542;13.362;2022-12-07T13:59:53;4.00;99.90
37268;DHT22;23154;52.542;13.362;2022-12-07T14:04:45;4.10;99.90
37268;DHT22;23154;52.542;13.362;2022-12-07T14:07:24;4.10;99.90
37268;DHT22;23154;52.542;13.362;2022-12-07T14:09:57;4.10;99.90
37268;DHT22;23154;52.542;13.362;2022-12-07T14:12:23;4.10;99.90
37268;DHT22;23154;52.542;13.362;2022-12-07T14:14:49;4.10;99.90
37268;DHT22;23154;52.542;13.362;2022-12-07T14:17:16;4.10;99.90
37268;DHT22;23154;52.542;13.362;2022-12-07T14:19:46;4.10;99.90
37268;DHT22;23154;52.542;13.362;2022-12-07T14:22:20;4.00;99.90
37268;DHT22;23154;52.542;13.362;2022-12-07T14:24:46;4.00;99.90
37268;DHT22;23154;52.542;13.362;2022-12-07T14:27:22;4.00;99.90
37268;DHT22;23154;52.542;13.362;2022-12-07T14:29:50;4.00;99.90
37268;DHT22;23154;52.542;13.362;2022-12-07T14:32:24;3.90;99.90
37268;DHT22;23154;52.542;13.362;2022-12-07T14:34:54;3.90;99.90
37268;DHT22;23154;52.542;13.362;2022-12-07T14:37:19;3.80;99.90
37268;DHT22;23154;52.542;13.362;2022-12-07T14:39:45;3.80;99.90
37268;DHT22;23154;52.542;13.362;2022-12-07T14:42:11;3.70;99.90
37268;DHT22;23154;52.542;13.362;2022-12-07T14:44:36;3.70;99.90
37268;DHT22;23154;52.542;13.362;2022-12-07T14:47:02;3.60;99.90
37268;DHT22;23154;52.542;13.362;2022-12-07T14:49:27;3.60;99.90
37268;DHT22;23154;52.542;13.362;2022-12-07T14:51:53;3.50;99.90
37268;DHT22;23154;52.542;13.362;2022-12-07T14:54:20;3.50;99.90
37268;DHT22;23154;52.542;13.362;2022-12-07T14:56:46;3.40;99.90
37268;DHT22;23154;52.542;13.362;2022-12-07T14:59:15;3.30;99.90
37268;DHT22;23154;52.542;13.362;2022-12-07T15:01:41;3.30;99.90
37268;DHT22;23154;52.542;13.362;2022-12-07T15:04:06;3.30;99.90
37268;DHT22;23154;52.542;13.362;2022-12-07T15:06:32;3.20;99.90
37268;DHT22;23154;52.542;13.362;2022-12-07T15:08:58;3.20;99.90
37268;DHT22;23154;52.542;13.362;2022-12-07T15:11:23;3.20;99.90
37268;DHT22;23154;52.542;13.362;2022-12-07T15:13:49;3.20;99.90
37268;DHT22;23154;52.542;13.362;2022-12-07T15:16:32;3.10;99.90
37268;DHT22;23154;52.542;13.362;2022-12-07T15:18:58;3.00;99.90
37268;DHT22;23154;52.542;13.362;2022-12-07T15:21:24;3.00;99.90
37268;DHT22;23154;52.542;13.362;2022-12-07T15:23:49;3.10;99.90
37268;DHT22;23154;52.542;13.362;2022-12-07T15:26:15;3.00;99.90
37268;DHT22;23154;52.542;13.362;2022-12-07T15:28:41;2.90;99.90
37268;DHT22;23154;52.542;13.362;2022-12-07T15:31:13;2.90;99.90
37268;DHT22;23154;52.542;13.362;2022-12-07T15:33:39;3.00;99.90
37268;DHT22;23154;52.542;13.362;2022-12-07T15:36:04;2.90;99.90
37268;DHT22;23154;52.542;13.362;2022-12-07T15:38:30;3.00;99.90
37268;DHT22;23154;52.542;13.362;2022-12-07T15:40:56;3.00;99.90
37268;DHT22;23154;52.542;13.362;2022-12-07T15:43:21;3.10;99.90
37268;DHT22;23154;52.542;13.362;2022-12-07T15:46:05;3.20;99.90
37268;DHT22;23154;52.542;13.362;2022-12-07T15:48:31;3.20;99.90
37268;DHT22;23154;52.542;13.362;2022-12-07T15:51:07;3.20;99.90
37268;DHT22;23154;52.542;13.362;2022-12-07T15:53:33;3.30;99.90
37268;DHT22;23154;52.542;13.362;2022-12-07T15:55:58;3.30;99.90
37268;DHT22;23154;52.542;13.362;2022-12-07T15:58:24;3.20;99.90
37268;DHT22;23154;52.542;13.362;2022-12-07T16:00:50;3.20;99.90
37268;DHT22;23154;52.542;13.362;2022-12-07T16:03:16;3.20;99.90
37268;DHT22;23154;52.542;13.362;2022-12-07T16:05:41;3.20;99.90
37268;DHT22;23154;52.542;13.362;2022-12-07T16:08:07;3.20;99.90
37268;DHT22;23154;52.542;13.362;2022-12-07T16:10:32;3.20;99.90
37268;DHT22;23154;52.542;13.362;2022-12-07T16:12:58;3.20;99.90
37268;DHT22;23154;52.542;13.362;2022-12-07T16:15:24;3.10;99.90
37268;DHT22;23154;52.542;13.362;2022-12-07T16:17:51;3.00;99.90
37268;DHT22;23154;52.542;13.362;2022-12-07T16:20:16;2.90;99.90
37268;DHT22;23154;52.542;13.362;2022-12-07T16:22:42;2.90;99.90
37268;DHT22;23154;52.542;13.362;2022-12-07T16:25:07;2.90;99.90
37268;DHT22;23154;52.542;13.362;2022-12-07T16:27:34;2.80;99.90
37268;DHT22;23154;52.542;13.362;2022-12-07T16:29:59;2.80;99.90
37268;DHT22;23154;52.542;13.362;2022-12-07T16:32:25;2.80;99.90
37268;DHT22;23154;52.542;13.362;2022-12-07T16:34:50;2.80;99.90
37268;DHT22;23154;52.542;13.362;2022-12-07T16:37:16;2.70;99.90
37268;DHT22;23154;52.542;13.362;2022-12-07T16:39:41;2.70;99.90
37268;DHT22;23154;52.542;13.362;2022-12-07T16:42:07;2.60;99.90
37268;DHT22;23154;52.542;13.362;2022-12-07T16:44:32;2.60;99.90
37268;DHT22;23154;52.542;13.362;2022-12-07T16:46:58;2.50;99.90
37268;DHT22;23154;52.542;13.362;2022-12-07T16:49:24;2.50;99.90
37268;DHT22;23154;52.542;13.362;2022-12-07T16:51:49;2.40;99.90
37268;DHT22;23154;52.542;13.362;2022-12-07T16:54:15;2.40;99.90
37268;DHT22;23154;52.542;13.362;2022-12-07T16:56:41;2.30;99.90
37268;DHT22;23154;52.542;13.362;2022-12-07T16:59:07;2.30;99.90
37268;DHT22;23154;52.542;13.362;2022-12-07T17:01:32;2.30;99.90
37268;DHT22;23154;52.542;13.362;2022-12-07T17:03:59;2.30;99.90
37268;DHT22;23154;52.542;13.362;2022-12-07T17:06:26;2.20;99.90
37268;DHT22;23154;52.542;13.362;2022-12-07T17:08:53;2.20;99.90
37268;DHT22;23154;52.542;13.362;2022-12-07T17:11:19;2.20;99.90
37268;DHT22;23154;52.542;13.362;2022-12-07T17:13:45;2.10;99.90
37268;DHT22;23154;52.542;13.362;2022-12-07T17:16:29;2.10;99.90
37268;DHT22;23154;52.542;13.362;2022-12-07T17:18:55;2.10;99.90
37268;DHT22;23154;52.542;13.362;2022-12-07T17:21:21;2.10;99.90
37268;DHT22;23154;52.542;13.362;2022-12-07T17:23:47;2.10;99.90
37268;DHT22;23154;52.542;13.362;2022-12-07T17:26:16;2.00;99.90
37268;DHT22;23154;52.542;13.362;2022-12-07T17:28:43;2.00;99.90
37268;DHT22;23154;52.542;13.362;2022-12-07T17:31:10;2.00;99.90
37268;DHT22;23154;52.542;13.362;2022-12-07T17:33:37;2.00;99.90
37268;DHT22;23154;52.542;13.362;2022-12-07T17:36:09;1.90;99.90